Time;durP1;ratioP1;P1;durP2;ratioP2;P2;SDS_P1;SDS_P2;PMS_P1;PMS_P2;Temp;Humidity;BMP_temperature;BMP_pressure;BME280_temperature;BME280_humidity;BME280_pressure;Samples;Min_cycle;Max_cycle;Signal;HPM_P1;HPM_P2
2022/01/01 00:02:07;;;;;;;4.10;1.05;;;;;;;;;;5100467;28;20023;-73
2022/01/01 00:04:32;;;;;;;3.17;0.85;;;;;;;;;;5100873;28;20040;-73
2022/01/01 00:06:57;;;;;;;3.53;0.80;;;;;;;;;;5100989;28;20016;-73
2022/01/01 00:09:23;;;;;;;3.13;0.70;;;;;;;;;;5100751;28;20015;-72
2022/01/01 00:11:48;;;;;;;3.65;0.73;;;;;;;;;;5101056;28;20024;-72
2022/01/01 00:14:14;;;;;;;3.53;0.65;;;;;;;;;;5101097;28;20072;-72
2022/01/01 00:16:39;;;;;;;2.42;0.70;;;;;;;;;;5100946;28;20019;-73
2022/01/01 00:19:05;;;;;;;1.92;0.63;;;;;;;;;;5100450;28;20004;-72
2022/01/01 00:21:30;;;;;;;3.33;0.80;;;;;;;;;;5100616;28;20012;-73
2022/01/01 00:23:55;;;;;;;4.38;1.27;;;;;;;;;;5100235;28;20009;-72
2022/01/01 00:26:24;;;;;;;3.53;1.02;;;;;;;;;;5100253;28;20050;-71
2022/01/01 00:28:49;;;;;;;6.55;1.15;;;;;;;;;;5100529;28;20016;-72
2022/01/01 00:31:15;;;;;;;5.72;0.90;;;;;;;;;;5100442;28;20020;-72
2022/01/01 00:33:40;;;;;;;4.68;0.80;;;;;;;;;;5100471;28;20017;-72
2022/01/01 00:36:06;;;;;;;5.20;0.80;;;;;;;;;;5099461;28;20016;-73
2022/01/01 00:38:31;;;;;;;6.20;1.10;;;;;;;;;;5100541;28;20020;-72
2022/01/01 00:40:57;;;;;;;4.13;0.90;;;;;;;;;;5099385;28;20009;-73
2022/01/01 00:43:24;;;;;;;5.25;0.80;;;;;;;;;;5100017;28;20090;-73
2022/01/01 00:45:50;;;;;;;4.35;1.02;;;;;;;;;;5099822;28;20050;-72
2022/01/01 00:48:15;;;;;;;4.68;1.15;;;;;;;;;;5099712;28;20021;-72
2022/01/01 00:50:41;;;;;;;4.35;0.60;;;;;;;;;;5099732;28;20076;-72
2022/01/01 00:53:06;;;;;;;2.17;0.65;;;;;;;;;;5099106;28;20021;-72
2022/01/01 00:55:31;;;;;;;2.45;0.90;;;;;;;;;;5100031;28;20004;-72
2022/01/01 00:57:57;;;;;;;3.90;1.13;;;;;;;;;;5100059;28;20024;-72
2022/01/01 01:00:22;;;;;;;6.38;1.08;;;;;;;;;;5100044;28;20012;-73
2022/01/01 01:02:48;;;;;;;6.68;0.80;;;;;;;;;;5099409;28;20016;-72
2022/01/01 01:05:13;;;;;;;1.65;0.68;;;;;;;;;;5098756;28;20004;-73
2022/01/01 01:07:38;;;;;;;3.17;0.77;;;;;;;;;;5098876;28;20065;-72
2022/01/01 01:10:05;;;;;;;1.50;0.57;;;;;;;;;;5098752;28;20005;-72
2022/01/01 01:12:46;;;;;;;5.22;1.10;;;;;;;;;;5098527;28;20032;-72
2022/01/01 01:15:17;;;;;;;4.35;1.10;;;;;;;;;;5098618;28;20019;-73
2022/01/01 01:17:48;;;;;;;4.47;0.98;;;;;;;;;;5098752;28;20084;-72
2022/01/01 01:20:14;;;;;;;7.40;1.10;;;;;;;;;;5098674;28;20024;-72
2022/01/01 01:22:40;;;;;;;0.93;0.80;;;;;;;;;;5099228;28;20017;-73
2022/01/01 01:25:07;;;;;;;3.17;0.88;;;;;;;;;;5098931;28;20034;-72
2022/01/01 01:27:34;;;;;;;5.63;1.13;;;;;;;;;;5098328;28;20122;-72
2022/01/01 01:30:00;;;;;;;7.15;1.02;;;;;;;;;;5099192;28;20016;-73
2022/01/01 01:32:25;;;;;;;5.38;1.00;;;;;;;;;;5099000;28;20035;-73
2022/01/01 01:34:51;;;;;;;4.97;0.80;;;;;;;;;;5098400;28;20059;-73
2022/01/01 01:37:16;;;;;;;2.65;1.00;;;;;;;;;;5098415;28;20039;-72
2022/01/01 01:39:42;;;;;;;2.97;0.90;;;;;;;;;;5098279;28;20016;-72
2022/01/01 01:42:10;;;;;;;3.50;0.90;;;;;;;;;;5098049;28;20096;-72
2022/01/01 01:44:42;;;;;;;7.47;1.00;;;;;;;;;;5115065;28;20020;-73
2022/01/01 01:47:15;;;;;;;3.33;0.90;;;;;;;;;;5098621;28;20024;-72
2022/01/01 01:49:41;;;;;;;3.03;0.87;;;;;;;;;;5097635;28;20066;-73
2022/01/01 01:52:07;;;;;;;2.15;0.90;;;;;;;;;;5098458;28;20013;-73
2022/01/01 01:54:33;;;;;;;3.83;1.10;;;;;;;;;;5098538;28;20024;-73
2022/01/01 01:56:59;;;;;;;5.32;0.80;;;;;;;;;;5097813;28;20025;-72
2022/01/01 01:59:25;;;;;;;3.10;1.13;;;;;;;;;;5098210;28;20051;-72
2022/01/01 02:01:51;;;;;;;3.33;0.90;;;;;;;;;;5098555;28;20016;-73
2022/01/01 02:04:16;;;;;;;3.72;0.80;;;;;;;;;;5098350;28;20009;-72
2022/01/01 02:06:43;;;;;;;5.30;1.08;;;;;;;;;;5097267;28;20039;-73
2022/01/01 02:09:11;;;;;;;2.80;1.10;;;;;;;;;;5097934;28;20016;-72
2022/01/01 02:11:37;;;;;;;5.05;1.40;;;;;;;;;;5097694;28;20012;-73
2022/01/01 02:14:09;;;;;;;2.58;1.00;;;;;;;;;;5098447;28;20024;-71
2022/01/01 02:16:52;;;;;;;5.72;1.17;;;;;;;;;;5098592;28;20011;-73
2022/01/01 02:19:25;;;;;;;2.35;0.90;;;;;;;;;;5097338;28;20016;-73
2022/01/01 02:21:56;;;;;;;2.63;1.03;;;;;;;;;;5097725;28;20009;-72
2022/01/01 02:24:23;;;;;;;3.50;0.85;;;;;;;;;;5098536;28;20012;-72
2022/01/01 02:26:48;;;;;;;5.30;0.90;;;;;;;;;;5113756;28;20016;-72
2022/01/01 02:29:14;;;;;;;2.42;0.85;;;;;;;;;;5097924;28;20016;-73
2022/01/01 02:31:39;;;;;;;3.95;1.05;;;;;;;;;;5097981;28;20068;-72
2022/01/01 02:34:07;;;;;;;3.72;1.00;;;;;;;;;;5097144;28;20009;-71
2022/01/01 02:36:38;;;;;;;4.30;1.05;;;;;;;;;;5097355;28;20075;-70
2022/01/01 02:39:17;;;;;;;4.00;1.65;;;;;;;;;;5097979;28;20054;-73
2022/01/01 02:41:43;;;;;;;4.63;1.00;;;;;;;;;;5098122;28;20046;-73
2022/01/01 02:44:09;;;;;;;6.72;0.93;;;;;;;;;;5097230;28;20009;-72
2022/01/01 02:46:35;;;;;;;4.78;1.17;;;;;;;;;;5097708;28;20072;-73
2022/01/01 02:49:01;;;;;;;6.93;1.33;;;;;;;;;;5097474;28;20012;-72
2022/01/01 02:51:26;;;;;;;6.93;1.50;;;;;;;;;;5097533;28;20016;-72
2022/01/01 02:53:52;;;;;;;3.58;1.40;;;;;;;;;;5098323;28;20012;-72
2022/01/01 02:56:17;;;;;;;4.18;1.30;;;;;;;;;;5097354;28;20036;-72
2022/01/01 02:58:43;;;;;;;4.40;1.70;;;;;;;;;;5097274;28;20027;-72
2022/01/01 03:01:09;;;;;;;3.63;1.20;;;;;;;;;;5097257;28;20012;-72
2022/01/01 03:03:34;;;;;;;3.58;1.25;;;;;;;;;;5097683;28;20076;-72
2022/01/01 03:06:00;;;;;;;3.92;1.15;;;;;;;;;;5097365;28;20027;-72
2022/01/01 03:08:25;;;;;;;8.85;1.55;;;;;;;;;;5097280;28;20016;-72
2022/01/01 03:10:51;;;;;;;4.38;1.45;;;;;;;;;;5097483;28;20008;-72
2022/01/01 03:13:17;;;;;;;3.97;1.30;;;;;;;;;;5097994;28;20023;-72
2022/01/01 03:15:43;;;;;;;4.28;1.40;;;;;;;;;;5096826;28;20277;-72
2022/01/01 03:18:09;;;;;;;2.80;1.17;;;;;;;;;;5097130;28;20016;-72
2022/01/01 03:20:34;;;;;;;2.67;1.38;;;;;;;;;;5113546;28;20027;-72
2022/01/01 03:23:00;;;;;;;5.00;1.75;;;;;;;;;;5097136;28;20023;-73
2022/01/01 03:25:25;;;;;;;5.75;1.50;;;;;;;;;;5096207;28;20009;-72
2022/01/01 03:27:50;;;;;;;5.07;2.33;;;;;;;;;;5096426;28;20020;-72
2022/01/01 03:30:16;;;;;;;2.95;1.23;;;;;;;;;;5096503;28;20016;-72
2022/01/01 03:32:41;;;;;;;4.72;1.42;;;;;;;;;;5100511;28;20016;-72
2022/01/01 03:35:07;;;;;;;5.97;1.38;;;;;;;;;;5101311;28;20008;-73
2022/01/01 03:37:32;;;;;;;5.15;1.17;;;;;;;;;;5101189;28;20047;-72
2022/01/01 03:39:58;;;;;;;5.60;1.73;;;;;;;;;;5101671;28;20016;-73
2022/01/01 03:42:23;;;;;;;4.00;1.55;;;;;;;;;;5101291;28;20023;-72
2022/01/01 03:44:48;;;;;;;2.55;1.10;;;;;;;;;;5101263;28;20012;-72
2022/01/01 03:47:14;;;;;;;3.13;1.13;;;;;;;;;;5100635;28;20032;-72
2022/01/01 03:49:39;;;;;;;5.28;1.25;;;;;;;;;;5099273;28;20268;-72
2022/01/01 03:52:05;;;;;;;3.88;0.90;;;;;;;;;;5101109;28;20066;-72
2022/01/01 03:54:32;;;;;;;1.90;0.75;;;;;;;;;;5099823;28;20009;-72
2022/01/01 03:56:57;;;;;;;8.52;1.30;;;;;;;;;;5100261;28;20016;-72
2022/01/01 03:59:25;;;;;;;3.17;1.00;;;;;;;;;;5099699;28;20092;-72
2022/01/01 04:01:50;;;;;;;2.50;1.02;;;;;;;;;;5100390;28;20027;-71
2022/01/01 04:04:16;;;;;;;5.63;1.23;;;;;;;;;;5099929;28;20009;-72
2022/01/01 04:06:41;;;;;;;3.58;1.30;;;;;;;;;;5100753;28;20027;-72
2022/01/01 04:09:06;;;;;;;2.35;1.20;;;;;;;;;;5100390;28;20009;-72
2022/01/01 04:11:32;;;;;;;2.58;1.23;;;;;;;;;;5100847;28;20076;-72
2022/01/01 04:13:57;;;;;;;4.05;1.38;;;;;;;;;;5101030;28;20072;-73
2022/01/01 04:16:23;;;;;;;2.88;1.48;;;;;;;;;;5099506;28;20021;-71
2022/01/01 04:18:49;;;;;;;4.10;1.85;;;;;;;;;;5115831;28;20023;-71
2022/01/01 04:21:15;;;;;;;3.83;1.80;;;;;;;;;;5100451;28;20042;-72
2022/01/01 04:23:42;;;;;;;2.72;1.60;;;;;;;;;;5100253;28;20046;-71
2022/01/01 04:26:08;;;;;;;3.45;1.70;;;;;;;;;;5100647;28;20020;-72
2022/01/01 04:28:35;;;;;;;2.55;1.40;;;;;;;;;;5100228;28;20024;-72
2022/01/01 04:31:00;;;;;;;4.70;1.50;;;;;;;;;;5100127;28;20072;-72
2022/01/01 04:33:26;;;;;;;3.05;1.48;;;;;;;;;;5100721;28;20016;-72
2022/01/01 04:35:51;;;;;;;4.20;1.30;;;;;;;;;;5100517;28;20033;-72
2022/01/01 04:38:49;;;;;;;2.65;1.40;;;;;;;;;;5099201;28;20092;-72
2022/01/01 04:41:12;;;;;;;1.65;1.10;;;;;;;;;;5100718;28;20024;-72
2022/01/01 04:43:39;;;;;;;2.97;1.23;;;;;;;;;;5099315;28;20019;-72
2022/01/01 04:46:04;;;;;;;1.90;1.15;;;;;;;;;;5099514;28;20024;-72
2022/01/01 04:48:29;;;;;;;1.88;1.25;;;;;;;;;;5099910;28;20008;-72
2022/01/01 04:50:55;;;;;;;3.33;1.42;;;;;;;;;;5099459;28;20084;-72
2022/01/01 04:53:20;;;;;;;2.97;1.50;;;;;;;;;;5099644;28;20020;-72
2022/01/01 04:55:47;;;;;;;3.17;1.42;;;;;;;;;;5099860;28;20038;-72
2022/01/01 04:58:14;;;;;;;5.57;1.50;;;;;;;;;;5100033;28;20028;-72
2022/01/01 05:00:39;;;;;;;2.08;1.42;;;;;;;;;;5100115;28;20033;-72
2022/01/01 05:03:05;;;;;;;2.55;1.40;;;;;;;;;;5099686;28;20008;-72
2022/01/01 05:05:30;;;;;;;1.50;0.98;;;;;;;;;;5099445;28;20019;-72
2022/01/01 05:07:55;;;;;;;1.75;1.10;;;;;;;;;;5099028;28;20016;-71
2022/01/01 05:10:21;;;;;;;2.42;1.45;;;;;;;;;;5099226;28;20033;-72
2022/01/01 05:12:46;;;;;;;2.08;1.23;;;;;;;;;;5099119;28;20013;-73
2022/01/01 05:15:12;;;;;;;3.22;1.40;;;;;;;;;;5098868;28;20009;-72
2022/01/01 05:17:37;;;;;;;3.63;1.30;;;;;;;;;;5098812;28;20017;-72
2022/01/01 05:20:03;;;;;;;4.05;2.10;;;;;;;;;;5098565;28;20012;-73
2022/01/01 05:22:29;;;;;;;5.50;2.00;;;;;;;;;;5098664;28;20028;-72
2022/01/01 05:25:00;;;;;;;3.53;2.15;;;;;;;;;;5098679;28;20017;-72
2022/01/01 05:27:30;;;;;;;5.88;2.00;;;;;;;;;;5099355;28;20021;-72
2022/01/01 05:29:55;;;;;;;5.95;3.17;;;;;;;;;;5099246;28;20004;-72
2022/01/01 05:32:21;;;;;;;6.78;3.08;;;;;;;;;;5099541;28;20023;-72
2022/01/01 05:34:46;;;;;;;6.45;3.30;;;;;;;;;;5115472;28;20015;-72
2022/01/01 05:37:11;;;;;;;6.80;3.45;;;;;;;;;;5099164;28;20029;-73
2022/01/01 05:39:37;;;;;;;9.93;4.15;;;;;;;;;;5099174;28;20036;-73
2022/01/01 05:42:03;;;;;;;7.13;3.63;;;;;;;;;;5099334;28;20036;-72
2022/01/01 05:44:29;;;;;;;6.68;4.00;;;;;;;;;;5098808;28;20024;-73
2022/01/01 05:46:54;;;;;;;8.23;3.72;;;;;;;;;;5098182;28;20020;-72
2022/01/01 05:49:20;;;;;;;6.38;4.03;;;;;;;;;;5098943;28;20016;-72
2022/01/01 05:51:46;;;;;;;6.57;3.47;;;;;;;;;;5097956;28;20106;-72
2022/01/01 05:54:11;;;;;;;6.80;3.65;;;;;;;;;;5097426;28;20027;-72
2022/01/01 05:56:37;;;;;;;7.72;3.80;;;;;;;;;;5098417;28;20016;-72
2022/01/01 05:59:02;;;;;;;9.70;3.85;;;;;;;;;;5098887;28;20032;-72
2022/01/01 06:01:28;;;;;;;8.35;3.30;;;;;;;;;;5098724;28;20038;-73
2022/01/01 06:03:53;;;;;;;5.90;2.90;;;;;;;;;;5098851;28;20039;-73
2022/01/01 06:06:21;;;;;;;6.43;2.90;;;;;;;;;;5098319;28;20027;-72
2022/01/01 06:08:47;;;;;;;7.38;3.22;;;;;;;;;;5098302;28;20032;-73
2022/01/01 06:11:12;;;;;;;5.20;2.60;;;;;;;;;;5097396;28;20134;-72
2022/01/01 06:13:37;;;;;;;5.85;3.00;;;;;;;;;;5097910;28;20015;-73
2022/01/01 06:16:03;;;;;;;5.85;3.08;;;;;;;;;;5097225;28;20016;-72
2022/01/01 06:18:28;;;;;;;9.32;2.72;;;;;;;;;;5097710;28;20029;-73
2022/01/01 06:20:54;;;;;;;4.25;2.50;;;;;;;;;;5097915;28;20016;-72
2022/01/01 06:23:19;;;;;;;5.03;2.70;;;;;;;;;;5097751;28;20016;-72
2022/01/01 06:25:44;;;;;;;5.10;2.67;;;;;;;;;;5097284;28;20013;-72
2022/01/01 06:28:10;;;;;;;4.78;3.08;;;;;;;;;;5098220;28;20047;-73
2022/01/01 06:30:35;;;;;;;4.43;2.55;;;;;;;;;;5098299;28;20013;-72
2022/01/01 06:33:11;;;;;;;5.13;2.72;;;;;;;;;;5098569;28;20042;-73
2022/01/01 06:35:39;;;;;;;6.13;2.55;;;;;;;;;;5097695;28;20009;-72
2022/01/01 06:38:04;;;;;;;3.83;2.35;;;;;;;;;;5097973;28;20240;-73
2022/01/01 06:40:29;;;;;;;4.13;2.53;;;;;;;;;;5097236;28;20013;-72
2022/01/01 06:42:55;;;;;;;3.90;2.30;;;;;;;;;;5098245;28;20009;-73
2022/01/01 06:45:20;;;;;;;5.15;2.10;;;;;;;;;;5097288;28;20012;-72
2022/01/01 06:47:46;;;;;;;5.43;2.50;;;;;;;;;;5097816;28;20027;-73
2022/01/01 06:50:11;;;;;;;5.93;2.60;;;;;;;;;;5098293;28;20031;-73
2022/01/01 06:52:44;;;;;;;3.88;2.08;;;;;;;;;;5097601;28;20021;-73
2022/01/01 06:55:11;;;;;;;5.22;2.60;;;;;;;;;;5097750;28;20016;-72
2022/01/01 06:57:36;;;;;;;5.30;2.25;;;;;;;;;;5097164;28;20012;-72
2022/01/01 07:00:03;;;;;;;3.63;2.10;;;;;;;;;;5097431;28;20015;-72
2022/01/01 07:02:28;;;;;;;4.13;1.85;;;;;;;;;;5096743;28;20016;-72
2022/01/01 07:04:54;;;;;;;5.43;2.17;;;;;;;;;;5096604;28;20046;-72
2022/01/01 07:07:19;;;;;;;5.45;2.35;;;;;;;;;;5100915;28;20031;-72
2022/01/01 07:09:44;;;;;;;3.25;1.60;;;;;;;;;;5101776;28;20008;-72
2022/01/01 07:12:10;;;;;;;4.60;1.75;;;;;;;;;;5101956;28;20069;-72
2022/01/01 07:14:35;;;;;;;4.45;1.65;;;;;;;;;;5101866;28;20012;-72
2022/01/01 07:17:00;;;;;;;3.72;1.60;;;;;;;;;;5101702;28;20054;-72
2022/01/01 07:19:26;;;;;;;3.65;1.58;;;;;;;;;;5100293;28;20009;-72
2022/01/01 07:21:56;;;;;;;3.45;1.33;;;;;;;;;;5101336;28;20021;-71
2022/01/01 07:24:21;;;;;;;5.18;1.20;;;;;;;;;;5101407;28;20072;-71
2022/01/01 07:26:48;;;;;;;3.08;1.77;;;;;;;;;;5101628;28;20020;-73
2022/01/01 07:29:13;;;;;;;4.65;1.30;;;;;;;;;;5101664;28;20029;-72
2022/01/01 07:31:39;;;;;;;4.20;1.50;;;;;;;;;;5100973;28;20034;-72
2022/01/01 07:34:04;;;;;;;5.30;1.48;;;;;;;;;;5101300;28;20035;-72
2022/01/01 07:36:29;;;;;;;3.58;1.98;;;;;;;;;;5100612;28;20028;-72
2022/01/01 07:38:55;;;;;;;8.27;1.25;;;;;;;;;;5101239;28;20020;-72
2022/01/01 07:41:20;;;;;;;2.10;0.90;;;;;;;;;;5101213;28;20009;-71
2022/01/01 07:43:45;;;;;;;3.45;1.10;;;;;;;;;;5101407;28;20016;-72
2022/01/01 07:46:11;;;;;;;2.03;0.90;;;;;;;;;;5100388;28;20009;-72
2022/01/01 07:48:36;;;;;;;1.17;0.65;;;;;;;;;;5101416;28;20012;-72
2022/01/01 07:51:01;;;;;;;2.85;0.90;;;;;;;;;;5100796;28;20245;-72
2022/01/01 07:53:27;;;;;;;1.73;0.60;;;;;;;;;;5101122;28;20009;-72
2022/01/01 07:55:52;;;;;;;1.80;0.63;;;;;;;;;;5100678;28;20016;-73
2022/01/01 07:58:17;;;;;;;3.85;1.27;;;;;;;;;;5100398;28;20046;-72
2022/01/01 08:00:43;;;;;;;4.10;0.73;;;;;;;;;;5101000;28;20031;-72
2022/01/01 08:03:11;;;;;;;0.75;0.75;;;;;;;;;;5100886;28;20012;-72
2022/01/01 08:05:37;;;;;;;1.25;0.73;;;;;;;;;;5100757;28;20008;-72
2022/01/01 08:08:04;;;;;;;1.08;0.70;;;;;;;;;;5101152;28;20024;-72
2022/01/01 08:10:29;;;;;;;2.63;0.70;;;;;;;;;;5101017;28;20013;-72
2022/01/01 08:12:55;;;;;;;4.22;0.60;;;;;;;;;;5101099;28;20075;-72
2022/01/01 08:15:21;;;;;;;2.95;0.88;;;;;;;;;;5100290;28;20016;-72
2022/01/01 08:17:46;;;;;;;2.25;0.77;;;;;;;;;;5099421;28;20017;-72
2022/01/01 08:20:12;;;;;;;2.75;0.77;;;;;;;;;;5100410;28;20023;-71
2022/01/01 08:22:37;;;;;;;1.02;0.50;;;;;;;;;;5100075;28;20013;-72
2022/01/01 08:25:03;;;;;;;3.78;0.70;;;;;;;;;;5100873;28;20076;-72
2022/01/01 08:27:28;;;;;;;1.65;0.50;;;;;;;;;;5100744;28;20020;-73
2022/01/01 08:29:54;;;;;;;1.35;0.55;;;;;;;;;;5100414;28;20020;-72
2022/01/01 08:32:19;;;;;;;1.92;0.60;;;;;;;;;;5099576;28;20009;-72
2022/01/01 08:34:45;;;;;;;2.60;0.60;;;;;;;;;;5100133;28;20008;-72
2022/01/01 08:37:10;;;;;;;0.65;0.65;;;;;;;;;;5100349;28;20024;-72
2022/01/01 08:39:37;;;;;;;0.98;0.52;;;;;;;;;;5100756;28;20020;-72
2022/01/01 08:42:03;;;;;;;1.15;0.50;;;;;;;;;;5100407;28;20032;-72
2022/01/01 08:44:28;;;;;;;1.15;0.75;;;;;;;;;;5100513;28;20020;-72
2022/01/01 08:46:53;;;;;;;1.35;0.75;;;;;;;;;;5099764;28;20012;-72
2022/01/01 08:49:19;;;;;;;2.35;0.75;;;;;;;;;;5100074;28;20020;-72
2022/01/01 08:51:44;;;;;;;1.00;0.68;;;;;;;;;;5099860;28;20025;-73
2022/01/01 08:54:13;;;;;;;2.20;0.70;;;;;;;;;;5099926;28;20036;-72
2022/01/01 08:56:39;;;;;;;3.78;0.70;;;;;;;;;;5099361;28;20024;-72
2022/01/01 08:59:04;;;;;;;1.02;0.60;;;;;;;;;;5099675;28;20024;-72
2022/01/01 09:01:30;;;;;;;3.38;0.50;;;;;;;;;;5100003;28;20072;-73
2022/01/01 09:03:55;;;;;;;1.48;0.40;;;;;;;;;;5099218;28;20066;-73
2022/01/01 09:06:21;;;;;;;0.95;0.68;;;;;;;;;;5099424;28;20012;-71
2022/01/01 09:08:46;;;;;;;2.30;0.70;;;;;;;;;;5099601;28;20023;-72
2022/01/01 09:11:13;;;;;;;3.35;0.80;;;;;;;;;;5099986;28;20084;-72
2022/01/01 09:13:43;;;;;;;3.40;0.75;;;;;;;;;;5099914;28;20016;-72
2022/01/01 09:16:14;;;;;;;2.25;0.65;;;;;;;;;;5099986;28;20013;-72
2022/01/01 09:18:42;;;;;;;2.25;0.77;;;;;;;;;;5098868;28;20024;-72
2022/01/01 09:21:09;;;;;;;3.70;0.68;;;;;;;;;;5099520;28;20008;-72
2022/01/01 09:23:35;;;;;;;1.33;0.60;;;;;;;;;;5099468;28;20048;-72
2022/01/01 09:26:01;;;;;;;0.70;0.60;;;;;;;;;;5098816;28;20009;-72
2022/01/01 09:28:28;;;;;;;1.60;0.60;;;;;;;;;;5098572;28;20036;-71
2022/01/01 09:30:54;;;;;;;1.20;0.52;;;;;;;;;;5099094;28;20020;-72
2022/01/01 09:33:20;;;;;;;1.10;0.68;;;;;;;;;;5098606;28;20021;-72
2022/01/01 09:35:45;;;;;;;1.73;0.60;;;;;;;;;;5099146;28;20017;-72
2022/01/01 09:38:10;;;;;;;2.58;0.82;;;;;;;;;;5098875;28;20020;-72
2022/01/01 09:40:36;;;;;;;2.50;0.60;;;;;;;;;;5099226;28;20019;-72
2022/01/01 09:43:02;;;;;;;2.30;0.68;;;;;;;;;;5098827;28;20027;-73
2022/01/01 09:45:28;;;;;;;0.60;0.52;;;;;;;;;;5098875;28;20069;-72
2022/01/01 09:47:54;;;;;;;2.40;0.57;;;;;;;;;;5098932;28;20046;-73
2022/01/01 09:50:19;;;;;;;1.58;0.50;;;;;;;;;;5098308;28;20019;-72
2022/01/01 09:52:44;;;;;;;1.73;0.50;;;;;;;;;;5099009;28;20021;-72
2022/01/01 09:55:10;;;;;;;1.80;0.70;;;;;;;;;;5115213;28;20019;-73
2022/01/01 09:57:36;;;;;;;0.93;0.68;;;;;;;;;;5098543;28;20016;-72
2022/01/01 10:00:03;;;;;;;1.55;0.70;;;;;;;;;;5097833;28;20032;-72
2022/01/01 10:02:29;;;;;;;0.43;0.40;;;;;;;;;;5098543;28;20017;-73
2022/01/01 10:04:54;;;;;;;1.50;0.70;;;;;;;;;;5098462;28;20008;-73
2022/01/01 10:07:28;;;;;;;1.85;0.52;;;;;;;;;;5097600;28;20017;-73
2022/01/01 10:09:54;;;;;;;1.45;0.47;;;;;;;;;;5098139;28;20042;-72
2022/01/01 10:12:19;;;;;;;0.90;0.40;;;;;;;;;;5097353;28;20080;-72
2022/01/01 10:14:47;;;;;;;1.35;0.55;;;;;;;;;;5098307;28;20031;-72
2022/01/01 10:17:22;;;;;;;1.17;0.50;;;;;;;;;;5097935;28;20038;-72
2022/01/01 10:19:53;;;;;;;1.77;0.63;;;;;;;;;;5098141;28;20023;-72
2022/01/01 10:22:20;;;;;;;0.73;0.45;;;;;;;;;;5097947;28;20024;-72
2022/01/01 10:27:43;;;;;;;1.25;0.70;;;;;;;;;;5098286;28;20050;-73
2022/01/01 10:30:31;;;;;;;1.25;0.52;;;;;;;;;;5098232;28;20103;-73
2022/01/01 10:33:03;;;;;;;4.03;0.60;;;;;;;;;;5094681;28;20024;-73
2022/01/01 10:35:34;;;;;;;1.63;0.90;;;;;;;;;;5097454;28;20013;-73
2022/01/01 10:38:03;;;;;;;2.92;0.50;;;;;;;;;;5097197;28;20024;-72
2022/01/01 10:40:29;;;;;;;1.05;0.40;;;;;;;;;;5097533;28;20009;-72
2022/01/01 10:42:54;;;;;;;0.63;0.50;;;;;;;;;;5097941;28;20072;-72
2022/01/01 10:45:41;;;;;;;3.45;0.50;;;;;;;;;;5097945;28;20012;-73
2022/01/01 10:48:17;;;;;;;1.10;0.40;;;;;;;;;;5097756;28;20028;-72
2022/01/01 10:50:44;;;;;;;1.58;0.60;;;;;;;;;;5097136;28;20036;-72
2022/01/01 10:53:12;;;;;;;1.13;0.60;;;;;;;;;;5096842;28;20084;-72
2022/01/01 10:55:45;;;;;;;1.13;0.65;;;;;;;;;;5097841;28;20009;-71
2022/01/01 10:58:22;;;;;;;1.00;0.60;;;;;;;;;;5097219;28;20034;-73
2022/01/01 11:00:48;;;;;;;1.15;0.47;;;;;;;;;;5097721;28;20020;-72
2022/01/01 11:03:16;;;;;;;2.53;0.80;;;;;;;;;;5096743;28;20019;-72
2022/01/01 11:05:43;;;;;;;0.93;0.52;;;;;;;;;;5097546;28;20012;-72
2022/01/01 11:08:09;;;;;;;1.65;0.80;;;;;;;;;;5097185;28;20016;-72
2022/01/01 11:10:36;;;;;;;2.40;0.80;;;;;;;;;;5097978;28;20012;-73
2022/01/01 11:13:03;;;;;;;0.98;0.68;;;;;;;;;;5096199;28;20015;-72
2022/01/01 11:15:30;;;;;;;1.00;0.52;;;;;;;;;;5097469;28;20009;-73
2022/01/01 11:17:56;;;;;;;3.22;0.60;;;;;;;;;;5096815;28;20019;-72
2022/01/01 11:20:23;;;;;;;1.85;0.60;;;;;;;;;;5097181;28;20005;-73
2022/01/01 11:22:48;;;;;;;1.77;0.68;;;;;;;;;;5097739;28;20024;-72
2022/01/01 11:25:14;;;;;;;1.77;0.63;;;;;;;;;;5097563;28;20020;-72
2022/01/01 11:27:39;;;;;;;1.25;0.60;;;;;;;;;;5096641;28;20031;-73
2022/01/01 11:30:11;;;;;;;1.20;0.70;;;;;;;;;;5096816;28;20013;-73
2022/01/01 11:32:37;;;;;;;1.60;0.70;;;;;;;;;;5097786;28;20012;-73
2022/01/01 11:35:04;;;;;;;2.03;0.68;;;;;;;;;;5097377;28;20080;-72
2022/01/01 11:38:03;;;;;;;0.90;0.50;;;;;;;;;;5096882;28;20060;-73
2022/01/01 11:40:47;;;;;;;2.72;0.80;;;;;;;;;;5096420;28;20008;-74
2022/01/01 11:43:31;;;;;;;;;;;;;;;;;;5095701;28;20086;-73
2022/01/01 11:45:58;;;;;;;2.47;0.80;;;;;;;;;;5095690;28;19908;-73
2022/01/01 11:48:27;;;;;;;1.20;0.57;;;;;;;;;;5096333;28;20028;-73
2022/01/01 11:50:53;;;;;;;2.80;0.70;;;;;;;;;;5096420;28;20020;-73
2022/01/01 11:53:29;;;;;;;3.38;1.00;;;;;;;;;;5099891;28;20028;-73
2022/01/01 11:56:12;;;;;;;2.25;0.95;;;;;;;;;;5101119;28;20031;-74
2022/01/01 11:58:51;;;;;;;1.27;0.85;;;;;;;;;;5101050;28;20031;-73
2022/01/01 12:01:21;;;;;;;1.50;0.70;;;;;;;;;;5100265;28;20016;-73
2022/01/01 12:03:51;;;;;;;1.02;0.63;;;;;;;;;;5099619;28;20008;-72
2022/01/01 12:06:21;;;;;;;2.67;1.10;;;;;;;;;;5101119;28;20019;-73
2022/01/01 12:08:48;;;;;;;0.90;0.60;;;;;;;;;;5101234;28;20049;-74
2022/01/01 12:11:31;;;;;;;1.02;0.70;;;;;;;;;;5100957;28;20025;-73
2022/01/01 12:13:58;;;;;;;1.95;0.80;;;;;;;;;;5100604;28;20011;-74
2022/01/01 12:16:24;;;;;;;1.80;0.68;;;;;;;;;;5099852;28;20044;-73
2022/01/01 12:18:58;;;;;;;1.58;0.80;;;;;;;;;;5100630;28;20028;-73
2022/01/01 12:21:27;;;;;;;1.45;0.90;;;;;;;;;;5100589;28;20043;-73
2022/01/01 12:23:58;;;;;;;1.77;0.80;;;;;;;;;;5099331;28;20034;-72
2022/01/01 12:26:31;;;;;;;2.47;0.75;;;;;;;;;;5100454;28;20021;-72
2022/01/01 12:29:07;;;;;;;2.13;0.80;;;;;;;;;;5100375;28;20020;-73
2022/01/01 12:31:33;;;;;;;3.85;0.90;;;;;;;;;;5100491;28;20167;-73
2022/01/01 12:34:09;;;;;;;2.78;1.30;;;;;;;;;;5100221;28;20164;-72
2022/01/01 12:36:35;;;;;;;1.77;0.90;;;;;;;;;;5100090;28;20032;-73
2022/01/01 12:39:04;;;;;;;1.60;0.90;;;;;;;;;;5099382;28;20016;-73
2022/01/01 12:41:38;;;;;;;2.25;0.75;;;;;;;;;;5100443;28;20013;-73
2022/01/01 12:44:09;;;;;;;1.35;0.73;;;;;;;;;;5099648;28;20020;-74
2022/01/01 12:46:37;;;;;;;1.77;0.70;;;;;;;;;;5099572;28;20035;-73
2022/01/01 12:49:05;;;;;;;2.00;0.70;;;;;;;;;;5099383;28;20009;-73
2022/01/01 12:51:37;;;;;;;1.25;0.90;;;;;;;;;;5099972;28;20008;-73
2022/01/01 12:54:06;;;;;;;0.93;0.60;;;;;;;;;;5100111;28;20008;-73
2022/01/01 12:56:33;;;;;;;3.55;1.02;;;;;;;;;;5100044;28;20012;-74
2022/01/01 12:59:00;;;;;;;1.00;0.60;;;;;;;;;;5099584;28;20032;-74
2022/01/01 13:01:33;;;;;;;2.88;0.90;;;;;;;;;;5098837;28;20028;-73
2022/01/01 13:04:01;;;;;;;2.95;0.80;;;;;;;;;;5099004;28;20012;-73
2022/01/01 13:06:34;;;;;;;1.10;0.70;;;;;;;;;;5099137;28;20038;-73
2022/01/01 13:09:06;;;;;;;1.38;0.77;;;;;;;;;;5099715;28;20017;-73
2022/01/01 13:11:33;;;;;;;1.50;0.50;;;;;;;;;;5099043;28;20016;-73
2022/01/01 13:13:59;;;;;;;1.00;0.60;;;;;;;;;;5098951;28;20009;-73
2022/01/01 13:16:25;;;;;;;1.33;0.50;;;;;;;;;;5099301;28;20019;-73
2022/01/01 13:18:51;;;;;;;0.85;0.60;;;;;;;;;;5099150;28;20051;-73
2022/01/01 13:21:20;;;;;;;0.80;0.60;;;;;;;;;;5099392;28;20008;-72
2022/01/01 13:23:46;;;;;;;4.40;1.55;;;;;;;;;;5098176;28;20009;-73
2022/01/01 13:26:13;;;;;;;0.95;0.60;;;;;;;;;;5098977;28;20046;-74
2022/01/01 13:28:38;;;;;;;0.88;0.70;;;;;;;;;;5098741;28;20040;-72
2022/01/01 13:31:05;;;;;;;3.45;1.30;;;;;;;;;;5098454;28;20138;-74
2022/01/01 13:33:38;;;;;;;2.90;1.17;;;;;;;;;;5098150;28;20020;-73
2022/01/01 13:36:04;;;;;;;4.07;1.40;;;;;;;;;;5097597;28;20009;-72
2022/01/01 13:38:31;;;;;;;2.10;1.20;;;;;;;;;;5098691;28;20020;-73
2022/01/01 13:40:59;;;;;;;3.58;1.60;;;;;;;;;;5098098;28;20012;-73
2022/01/01 13:43:31;;;;;;;2.80;1.10;;;;;;;;;;5098683;28;20008;-71
2022/01/01 13:46:27;;;;;;;1.40;0.90;;;;;;;;;;5098849;28;20013;-73
2022/01/01 13:48:52;;;;;;;4.38;1.40;;;;;;;;;;5098395;28;20012;-72
2022/01/01 13:51:20;;;;;;;2.35;1.00;;;;;;;;;;5097763;28;20080;-72
2022/01/01 13:53:47;;;;;;;1.73;0.98;;;;;;;;;;5098744;28;20024;-73
2022/01/01 13:56:19;;;;;;;5.20;1.33;;;;;;;;;;5098956;28;20017;-72
2022/01/01 13:58:49;;;;;;;1.58;1.00;;;;;;;;;;5098198;28;20058;-71
2022/01/01 14:01:18;;;;;;;1.90;0.80;;;;;;;;;;5098436;28;20008;-72
2022/01/01 14:03:45;;;;;;;1.63;0.80;;;;;;;;;;5098495;28;20051;-72
2022/01/01 14:06:11;;;;;;;1.25;0.65;;;;;;;;;;5098894;28;20047;-72
2022/01/01 14:08:38;;;;;;;2.70;1.30;;;;;;;;;;5098403;28;20019;-72
2022/01/01 14:11:05;;;;;;;2.08;1.27;;;;;;;;;;5098471;28;20042;-72
2022/01/01 14:13:34;;;;;;;2.28;1.13;;;;;;;;;;5098760;28;20032;-72
2022/01/01 14:16:12;;;;;;;2.83;1.10;;;;;;;;;;5097713;28;20046;-72
2022/01/01 14:18:37;;;;;;;2.15;1.10;;;;;;;;;;5098126;28;20028;-73
2022/01/01 14:21:02;;;;;;;4.20;1.08;;;;;;;;;;5098037;28;20039;-73
2022/01/01 14:23:32;;;;;;;2.22;1.20;;;;;;;;;;5098427;28;20023;-72
2022/01/01 14:26:07;;;;;;;3.55;0.75;;;;;;;;;;5098373;28;20064;-73
2022/01/01 14:28:32;;;;;;;2.42;0.90;;;;;;;;;;5097872;28;20016;-72
2022/01/01 14:31:00;;;;;;;0.60;0.50;;;;;;;;;;5098589;28;20047;-73
2022/01/01 14:33:26;;;;;;;0.90;0.70;;;;;;;;;;5098318;28;20016;-73
2022/01/01 14:36:04;;;;;;;1.95;0.98;;;;;;;;;;5097952;28;20016;-73
2022/01/01 14:38:30;;;;;;;1.75;0.70;;;;;;;;;;5098266;28;20053;-73
2022/01/01 14:40:57;;;;;;;1.88;0.70;;;;;;;;;;5097813;28;20100;-73
2022/01/01 14:43:22;;;;;;;1.65;0.77;;;;;;;;;;5097813;28;20016;-73
2022/01/01 14:45:50;;;;;;;1.02;0.70;;;;;;;;;;5098224;28;20073;-73
2022/01/01 14:48:27;;;;;;;2.53;0.65;;;;;;;;;;5097620;28;20028;-73